Date,TemperatureHighF,TemperatureAvgF,TemperatureLowF,DewpointHighF,DewpointAvgF,DewpointLowF,HumidityHigh,HumidityAvg,HumidityLow,PressureMaxIn,PressureMinIn,WindSpeedMaxMPH,WindSpeedAvgMPH,GustSpeedMaxMPH,PrecipitationSumIn
2013-1-1,46.5,40.8,36.0,44.9,36.6,29.6,94,85,77,30.34,30.07,6,2,11,0.00
2013-1-2,41.2,35.5,30.2,31.0,29.3,27.3,89,78,66,30.40,30.30,4,1,7,0.00
2013-1-3,48.7,39.1,29.4,32.6,29.5,26.3,89,70,49,30.52,30.38,3,0,6,0.00
2013-1-4,49.4,44.6,40.9,36.7,32.8,30.6,72,63,53,30.57,30.41,1,0,4,0.00
2013-1-5,52.7,44.4,37.7,40.6,38.0,35.0,92,79,63,30.40,30.24,4,1,8,0.00
2013-1-6,56.1,42.7,34.0,35.0,30.5,27.9,95,65,34,30.45,30.33,3,1,6,0.00
2013-1-7,55.5,42.7,27.9,36.3,31.7,25.2,92,67,46,30.38,30.14,4,1,8,0.00
2013-1-8,49.2,47.7,46.4,46.9,42.4,34.1,97,83,60,30.15,30.00,3,0,6,1.39
2013-1-9,56.6,53.4,47.7,55.6,52.5,46.9,98,97,95,30.16,29.94,4,1,7,1.17
2013-1-10,56.4,56.1,55.9,55.6,55.3,55.1,97,97,97,30.01,29.97,2,1,5,0.04
2013-1-14,45.4,40.7,34.6,28.2,26.2,23.7,66,56,45,30.29,30.26,2,0,5,0.00
2013-1-15,38.3,35.1,30.2,31.3,27.0,21.8,91,73,57,30.29,30.20,4,2,6,0.05
2013-1-16,49.4,37.1,27.2,28.7,22.4,19.7,77,57,33,30.36,30.21,4,1,7,0.00
2013-1-17,60.0,45.7,32.5,35.9,32.0,26.9,84,61,37,30.54,30.30,3,1,7,0.00
2013-1-18,62.7,47.2,31.9,37.6,34.4,29.3,93,65,36,30.55,30.30,6,1,9,0.00
2013-1-19,65.8,52.8,40.9,47.3,42.3,35.8,88,69,47,30.30,30.16,5,1,9,0.00
2013-1-20,70.2,52.5,40.3,47.6,42.0,38.7,96,71,35,30.25,30.09,3,0,8,0.00
2013-1-21,55.9,47.1,39.7,42.5,32.8,26.5,86,59,44,30.34,30.15,4,1,9,0.00
2013-1-22,66.6,51.0,37.9,48.2,39.2,28.0,85,65,51,30.35,30.20,3,1,6,0.00
2013-1-23,74.1,61.5,50.6,56.9,52.8,47.2,90,74,53,30.29,30.13,7,2,9,0.00
2013-1-24,79.8,64.2,54.1,60.4,54.8,46.8,94,73,49,30.19,30.03,4,1,10,0.00
2013-1-25,55.6,49.5,46.0,49.2,43.7,39.6,95,81,70,30.23,30.05,3,1,7,0.00
2013-1-26,53.5,49.4,45.2,49.4,45.9,39.5,96,88,72,30.26,30.13,2,0,8,0.00
2013-1-27,75.1,63.7,50.0,64.2,58.1,48.9,100,83,60,30.13,29.93,7,2,11,0.00
2013-1-28,77.8,72.3,67.8,66.9,64.7,63.5,89,78,62,30.00,29.84,8,4,21,0.00
2013-1-29,79.3,67.3,54.6,66.9,59.6,32.4,93,77,41,29.84,29.43,9,4,18,0.46
2013-1-30,55.7,47.2,36.8,38.1,28.9,20.6,72,51,30,30.17,29.69,9,4,14,0.00
2013-1-31,69.5,50.3,34.1,31.8,27.1,24.2,74,45,19,30.35,30.11,7,2,10,0.00
2013-2-1,60.2,45.9,30.8,40.0,28.7,19.0,66,52,37,30.43,30.19,4,1,7,0.00
2013-2-2,66.8,56.1,46.8,45.4,39.3,34.1,81,55,31,30.35,30.17,5,2,9,0.00
2013-2-3,69.8,54.4,36.6,40.9,33.3,27.7,90,51,21,30.35,30.00,4,1,9,0.00
2013-2-4,73.3,62.8,55.1,57.7,50.2,30.0,89,65,32,30.01,29.80,6,2,9,0.00
2013-2-5,67.9,61.6,58.7,60.5,58.5,56.3,97,90,74,30.03,29.88,2,0,5,0.00
2013-2-6,75.7,64.2,56.2,62.2,57.9,54.6,96,82,51,30.03,29.85,6,2,12,0.00
2013-2-7,79.7,65.3,55.5,60.2,54.6,42.9,94,71,30,30.12,29.80,9,4,18,0.00
2013-2-8,64.8,53.8,43.6,45.0,34.3,23.0,78,52,21,30.28,30.12,4,1,11,0.00
2013-2-9,53.9,50.7,48.4,49.0,44.6,36.0,90,80,59,30.16,29.89,7,3,10,0.00
2013-2-13,58.0,50.7,42.8,38.4,36.1,32.4,80,59,39,30.09,30.05,2,0,14,0.00
2013-2-14,42.9,42.7,42.6,37.8,37.5,37.2,82,82,81,30.09,30.08,0,0,0,0.00
2013-2-26,56.8,56.4,56.1,34.5,34.0,33.3,43,43,42,29.86,29.86,5,4,5,0.00
2013-2-27,56.5,48.5,41.9,27.1,24.8,19.8,53,40,26,30.27,30.15,7,5,18,0.00
2013-2-28,58.7,47.0,36.5,30.5,27.4,22.8,76,49,28,30.34,30.21,8,3,12,0.00
2013-3-1,55.0,44.9,34.1,33.3,29.3,25.9,75,55,39,30.34,30.22,4,1,9,0.00
2013-3-2,55.4,42.7,32.0,29.5,26.0,22.1,76,54,31,30.48,30.27,6,2,13,0.00
2013-3-3,71.7,55.4,35.1,43.3,32.5,26.2,74,45,25,30.27,29.81,8,4,13,0.00
2013-3-4,87.7,69.0,55.9,50.4,43.0,32.0,68,44,14,29.81,29.58,7,4,14,0.00
2013-3-5,61.8,51.1,43.4,44.5,26.7,17.3,67,41,22,30.40,29.80,9,5,15,0.00
2013-3-6,61.8,49.2,35.0,25.6,21.4,14.5,67,36,16,30.50,30.23,2,0,5,0.00
2013-3-7,71.6,57.1,40.7,39.6,29.1,22.7,59,37,16,30.27,30.11,7,2,13,0.00
2013-3-8,63.2,59.2,54.9,57.2,51.9,39.9,87,77,49,30.20,30.00,5,2,10,0.01
2013-3-9,68.6,64.5,60.3,65.6,60.6,55.9,96,87,80,30.00,29.64,7,4,13,1.19
2013-3-10,60.8,51.7,41.8,59.9,40.2,31.1,97,66,49,30.12,29.74,10,4,18,0.06
2013-3-11,60.4,46.4,35.4,32.9,27.5,19.2,84,52,23,30.17,30.03,6,2,10,0.00
2013-3-12,68.4,53.8,39.4,32.8,29.5,25.1,69,42,22,30.34,30.06,4,1,9,0.00
2013-3-13,51.1,48.7,46.9,36.5,34.6,32.4,63,58,49,30.36,30.34,0,0,0,0.00
2013-3-15,82.1,73.7,56.5,54.7,48.1,43.1,84,43,27,30.15,29.89,8,5,15,0.00
2013-3-16,82.3,70.4,59.4,59.8,54.9,48.7,80,59,44,29.89,29.68,8,5,14,0.00
2013-3-17,72.7,67.6,60.4,61.4,55.6,49.1,84,67,50,29.80,29.67,7,2,11,0.00
2013-3-18,69.0,63.1,57.8,63.2,49.5,39.3,92,63,44,30.02,29.64,6,2,10,0.00
2013-3-19,70.3,62.0,49.6,44.2,39.0,33.1,71,44,34,30.15,29.98,4,1,10,0.00
2013-3-20,67.8,58.5,47.8,39.9,34.1,28.9,67,42,25,30.33,30.05,3,0,7,0.00
2013-3-21,69.9,63.2,54.6,58.7,46.4,29.9,77,55,38,30.05,29.57,8,4,14,0.00
2013-3-22,66.8,54.5,47.0,61.4,49.7,43.6,93,84,65,29.87,29.56,6,2,9,0.00
2013-3-23,53.9,50.2,46.7,49.7,47.3,44.6,96,90,84,29.90,29.69,7,0,8,0.09
2013-3-24,53.0,45.9,38.9,48.4,30.1,19.6,96,57,32,30.22,29.85,10,5,19,0.00
2013-3-25,54.7,44.2,32.6,24.8,21.4,16.7,69,42,23,30.45,30.22,7,2,11,0.00
2013-3-26,58.9,45.6,30.3,26.4,23.1,19.8,77,44,25,30.55,30.33,3,0,5,0.00
2013-3-27,70.2,57.6,42.8,44.4,34.1,23.1,56,42,29,30.34,30.09,7,3,12,0.00
2013-3-28,70.7,63.2,52.3,58.1,52.8,44.2,83,69,57,30.24,30.09,5,2,14,0.00
2013-3-29,76.6,67.8,60.7,59.2,57.7,56.2,85,71,53,30.20,30.02,6,3,10,0.00
2013-3-30,77.0,67.6,56.0,64.1,60.4,53.6,97,79,62,30.12,29.88,6,1,9,0.85
2013-3-31,76.0,68.1,60.2,63.3,58.1,50.1,91,72,46,29.99,29.80,5,1,7,0.01
2013-4-1,80.8,66.6,51.0,55.1,50.8,47.4,95,61,32,30.09,29.93,3,0,7,0.00
2013-4-2,69.3,65.5,53.6,63.1,58.7,44.0,93,79,57,30.02,29.90,4,1,9,0.12
2013-4-3,55.1,48.5,43.8,49.5,46.0,42.2,95,91,70,30.19,29.93,4,0,10,0.87
2013-4-4,50.7,46.3,42.4,42.9,41.7,40.3,95,84,72,30.25,30.15,4,1,9,0.01
2013-4-5,68.5,54.5,38.9,50.4,44.5,37.1,95,72,46,30.29,30.05,3,0,6,0.00
2013-4-6,76.3,65.5,57.0,59.6,53.2,46.2,77,65,52,30.06,29.83,6,2,13,0.00
2013-4-7,73.8,67.9,62.4,63.0,60.5,57.0,86,78,68,29.91,29.74,4,2,12,0.00
2013-4-8,76.1,71.7,66.7,66.0,63.5,59.5,83,76,70,29.76,29.66,5,3,10,0.00
2013-4-9,81.5,75.0,69.3,68.4,65.8,63.4,87,74,60,29.70,29.61,5,3,13,0.00
2013-4-10,75.3,48.0,39.8,68.7,43.4,35.6,93,84,62,30.03,29.69,7,2,14,0.23
2013-4-11,62.2,49.7,40.5,41.9,35.1,30.0,79,59,38,30.02,29.85,3,0,9,0.00
2013-4-12,78.1,60.2,42.7,49.6,44.8,40.1,93,61,28,30.03,29.89,2,0,6,0.00
2013-4-13,78.9,68.0,54.4,51.6,48.8,45.1,81,52,33,30.01,29.78,4,1,9,0.00
2013-4-14,82.9,70.2,57.2,66.7,59.3,50.1,86,69,55,29.79,29.54,4,1,10,0.00
2013-4-15,88.4,77.9,70.0,68.8,67.2,65.9,88,71,50,29.75,29.60,4,2,12,0.00
2013-4-16,88.2,79.0,72.1,70.3,67.3,64.2,84,69,50,29.89,29.75,4,2,9,0.00
2013-4-17,85.9,78.4,73.2,71.3,69.2,67.9,91,75,57,29.88,29.61,6,2,10,0.00
2013-4-18,77.5,55.4,46.2,71.7,47.0,36.0,94,74,51,30.18,29.53,7,3,13,1.22
2013-4-19,63.3,50.8,39.7,41.5,32.9,25.3,80,54,26,30.33,30.17,5,1,8,0.00
2013-4-20,72.2,58.3,43.6,41.2,35.6,30.4,78,47,24,30.23,30.03,4,1,9,0.00
2013-4-21,71.3,61.6,49.7,51.9,47.4,36.7,80,60,42,30.22,30.08,3,1,7,0.00
2013-4-22,79.1,67.9,55.2,59.7,54.6,47.5,85,64,50,30.12,29.84,4,1,9,0.00
2013-4-23,69.9,55.2,42.4,62.4,49.9,38.5,92,82,68,30.22,29.80,5,2,11,0.01
2013-4-24,42.2,41.3,40.9,38.6,37.6,37.0,89,87,84,30.27,30.22,4,2,9,0.04
2013-4-26,78.0,74.2,71.4,67.0,66.3,65.7,84,77,69,30.01,29.98,2,0,11,0.00
2013-4-27,73.1,68.4,59.8,66.7,60.3,55.4,92,76,58,30.14,29.98,4,1,8,0.00
2013-4-28,81.9,68.9,54.5,66.5,60.7,52.3,94,76,57,30.05,29.85,2,0,6,0.00
2013-4-29,86.1,74.9,62.0,67.8,61.9,57.7,94,66,41,29.91,29.78,3,1,8,0.00
2013-4-30,82.9,72.4,60.9,65.8,62.2,57.6,93,72,54,29.83,29.73,3,1,10,0.00
2013-5-1,81.3,72.9,66.3,67.4,65.1,63.0,91,78,60,29.95,29.78,2,0,6,0.00
2013-5-2,71.4,52.7,44.0,63.3,46.2,37.0,90,78,69,30.37,29.94,6,3,10,0.00
2013-5-3,65.8,53.1,39.2,37.6,33.0,27.5,80,51,24,30.35,30.05,5,2,16,0.00
2013-5-4,73.9,58.4,40.6,41.6,35.9,23.9,89,50,18,30.05,29.91,7,1,14,0.00
2013-5-5,69.1,58.6,47.6,48.5,43.7,39.2,77,59,44,30.19,30.05,3,0,12,0.00
2013-5-6,77.7,64.8,50.1,55.9,51.4,46.8,91,64,41,30.15,30.00,1,0,8,0.00
2013-5-7,85.5,72.9,57.1,57.0,54.9,52.5,92,57,33,30.08,29.92,1,0,10,0.00
2013-5-8,85.6,76.3,64.7,59.5,56.5,51.2,73,52,33,29.99,29.85,4,1,14,0.00
2013-5-9,77.4,70.9,68.8,67.5,62.4,57.3,93,76,53,29.95,29.88,3,1,13,0.11
2013-5-14,87.2,80.9,68.8,62.1,58.4,53.4,72,48,33,30.16,29.97,3,1,12,0.00
2013-5-15,76.5,72.6,63.4,69.7,67.1,61.7,95,83,63,30.04,29.72,4,2,16,1.25
2013-5-16,81.7,74.3,62.4,72.4,68.7,61.2,96,83,72,29.83,29.73,3,1,11,0.00
2013-5-17,90.7,80.8,73.6,74.1,72.5,70.6,94,77,57,29.84,29.77,3,1,11,0.00
2013-5-18,92.6,83.2,74.4,74.4,71.5,68.7,84,69,52,29.88,29.73,3,1,14,0.00
2013-5-19,88.9,81.4,71.8,72.2,69.4,66.1,86,68,57,29.82,29.65,4,2,19,0.00
2013-5-20,90.0,82.1,75.3,73.0,70.5,67.7,82,69,56,29.80,29.62,4,2,16,0.00
2013-5-21,83.7,72.8,61.3,71.7,66.6,58.3,94,82,64,29.88,29.65,6,1,18,0.68
2013-5-22,87.0,70.8,55.6,64.4,59.2,54.3,97,71,36,29.97,29.84,1,0,7,0.01
2013-5-23,87.2,78.9,70.7,74.4,70.4,63.9,94,76,59,30.05,29.87,3,0,12,0.00
2013-5-24,85.5,77.6,68.1,76.3,71.2,65.0,94,81,67,30.18,29.99,4,0,14,0.30
2013-5-25,83.1,72.5,67.4,72.7,68.7,65.7,96,89,68,30.17,30.03,4,0,16,0.22
2013-5-26,86.3,78.4,71.3,74.1,71.2,69.8,96,80,62,30.08,29.91,3,1,13,0.01
2013-5-27,86.1,79.2,73.1,71.4,69.5,68.1,85,73,59,29.98,29.77,3,1,12,0.00
2013-5-28,85.0,79.7,73.3,70.4,68.6,67.1,85,70,57,29.88,29.73,5,2,15,0.00
2013-5-29,84.8,77.1,71.0,73.3,70.7,67.7,94,81,67,29.81,29.67,6,2,22,0.30
2013-5-30,88.6,80.5,74.6,74.0,72.1,70.0,88,76,60,29.79,29.67,4,2,16,0.00
2013-5-31,90.0,83.1,77.7,75.2,73.5,71.9,85,74,58,29.82,29.66,4,2,14,0.00
2013-6-1,87.8,80.7,78.3,74.5,71.9,68.3,81,75,64,29.94,29.70,3,1,18,0.00
2013-6-2,83.8,76.5,67.4,67.9,58.0,50.3,79,55,32,30.08,29.94,3,0,11,0.00
2013-6-3,91.9,77.5,64.6,63.1,59.9,57.3,82,57,34,30.00,29.82,1,0,8,0.00
2013-6-4,92.6,82.2,72.0,70.9,67.7,61.2,82,63,46,29.98,29.76,3,1,13,0.00
2013-6-5,91.1,83.0,74.8,71.8,69.6,66.8,83,65,47,29.92,29.74,4,0,14,0.00
2013-6-6,81.2,73.7,69.2,73.3,68.4,65.9,96,84,68,29.95,29.79,4,0,9,0.92
2013-6-7,85.6,74.3,63.4,66.2,60.4,55.1,95,66,36,30.02,29.88,1,0,10,0.00
2013-6-8,89.0,76.7,62.9,64.1,61.3,58.8,93,62,41,29.94,29.78,2,0,11,0.00
2013-6-9,89.7,78.9,68.5,71.4,68.5,62.0,96,72,53,29.94,29.83,4,1,14,1.15
2013-6-10,98.8,83.8,69.0,72.9,67.5,58.5,93,63,27,29.95,29.88,2,0,8,0.00
2013-6-11,93.1,85.1,75.8,75.3,71.4,66.4,87,65,48,30.01,29.90,2,0,11,0.00
2013-6-12,94.4,85.1,76.6,73.9,71.8,69.0,88,66,46,30.04,29.91,2,0,11,0.00
2013-6-13,84.4,83.1,81.0,71.8,70.6,69.4,68,66,65,29.97,29.95,0,0,4,0.00
2013-6-14,97.1,91.5,83.9,73.3,71.4,68.0,70,53,42,29.97,29.86,1,0,6,0.00
2013-6-15,90.9,85.0,80.2,75.9,73.3,70.9,74,68,59,29.94,29.86,2,0,12,0.01
2013-6-16,96.3,86.0,75.0,74.2,71.3,68.2,91,64,43,30.00,29.85,2,0,10,0.00
2013-6-17,94.6,83.1,69.3,76.7,72.5,67.0,96,72,49,30.03,29.82,5,0,13,0.56
2013-6-18,86.4,77.1,69.7,74.8,71.0,67.6,95,82,59,30.01,29.86,2,0,9,0.28
2013-6-19,92.5,81.4,71.3,77.0,72.4,69.4,95,76,56,29.98,29.85,3,0,14,0.00
2013-6-20,95.7,85.7,77.3,73.6,71.1,67.8,85,64,43,30.03,29.90,2,0,14,0.00
2013-6-21,95.5,87.0,77.6,74.3,70.2,67.0,84,59,41,30.05,29.93,2,1,14,0.00
2013-6-22,95.7,86.8,76.4,73.6,70.1,66.8,82,59,42,30.02,29.86,3,1,13,0.00
2013-6-23,96.1,87.1,78.0,73.4,70.0,66.3,82,59,41,29.97,29.85,3,1,15,0.00
2013-6-24,96.0,86.9,77.3,73.2,69.7,66.2,83,59,39,30.01,29.86,3,1,14,0.00
2013-6-25,97.1,88.1,78.7,73.8,69.6,65.5,80,56,38,29.97,29.80,4,1,15,0.00
2013-6-26,98.2,88.3,78.0,74.2,71.3,66.4,81,58,44,29.94,29.82,3,1,15,0.00
2013-6-27,101.1,89.6,80.1,76.1,71.6,68.0,78,57,37,30.00,29.83,1,0,9,0.00
2013-6-28,104.7,90.2,79.2,72.0,68.3,64.5,67,50,30,29.93,29.79,2,0,9,0.00
2013-6-29,99.1,87.7,76.2,73.3,66.1,58.8,82,52,27,29.88,29.78,2,0,9,0.00
2013-6-30,92.6,83.9,75.4,68.0,60.6,55.7,74,47,32,29.93,29.80,3,0,11,0.00
2013-7-1,88.8,79.5,69.9,63.1,59.3,56.5,74,51,35,30.02,29.93,2,0,13,0.00
2013-7-2,89.8,79.7,68.4,61.0,55.7,50.7,71,46,27,30.08,29.99,2,0,10,0.00
2013-7-3,92.2,79.1,64.2,62.2,55.6,47.5,83,49,23,30.06,29.93,1,0,10,0.00
2013-7-4,95.8,83.8,72.0,65.5,60.1,50.4,72,47,24,30.00,29.87,4,0,15,0.00
2013-7-5,97.8,86.0,73.9,66.8,62.5,57.6,72,48,30,29.99,29.84,2,0,10,0.00
2013-7-6,97.9,86.3,74.4,68.9,63.7,57.5,71,49,29,29.93,29.83,3,1,14,0.00
2013-7-7,97.7,87.5,75.9,72.7,67.7,62.1,74,53,36,29.99,29.89,2,0,10,0.00
2013-7-8,97.6,86.6,78.4,74.9,71.7,64.5,82,63,40,30.07,29.96,3,0,13,0.00
2013-7-9,100.1,89.0,79.1,74.0,67.3,60.4,81,52,29,30.10,29.94,2,0,10,0.00
2013-7-10,103.7,92.3,81.9,73.5,69.1,63.9,74,49,30,30.04,29.87,2,0,9,0.00
2013-7-11,88.8,88.0,86.9,68.8,67.3,66.2,55,51,48,29.94,29.91,0,0,2,0.00
2013-8-2,103.2,96.3,83.4,72.3,68.8,66.1,68,42,32,29.92,29.83,2,0,11,0.00
2013-8-3,102.0,91.2,81.3,72.6,68.7,64.7,71,50,32,29.99,29.89,2,0,12,0.00
2013-8-4,100.7,91.1,81.9,74.5,70.6,66.0,76,53,34,30.05,29.89,2,0,9,0.00
2013-8-5,103.8,91.9,82.0,72.2,68.8,64.4,71,49,31,29.98,29.81,2,0,9,0.00
2013-8-6,104.2,92.8,81.0,72.1,68.1,61.9,73,47,30,29.89,29.75,2,0,13,0.00
2013-8-7,106.1,92.9,81.4,73.3,69.6,65.7,73,49,29,29.87,29.72,2,0,12,0.00
2013-8-8,101.5,91.8,82.0,74.3,69.3,64.6,75,50,32,29.86,29.73,2,0,11,0.00
2013-8-9,103.3,90.4,82.1,74.0,68.7,62.5,72,51,29,29.94,29.79,6,0,14,0.00
2013-8-10,98.2,87.8,78.2,76.3,72.6,67.8,88,63,42,30.04,29.93,2,0,10,0.00
2013-8-11,102.8,89.7,77.8,75.9,70.7,66.8,80,56,33,30.05,29.91,4,0,16,0.02
2013-8-12,100.5,90.4,80.0,73.9,70.6,67.3,77,54,36,30.03,29.88,1,0,8,0.00
2013-8-13,100.1,85.9,74.7,75.8,71.4,67.5,96,65,37,29.99,29.85,6,0,12,1.01
2013-8-14,85.8,78.3,76.1,76.0,74.8,72.8,96,90,66,29.97,29.93,2,0,12,0.25
2013-8-15,89.7,84.8,77.7,69.5,67.3,64.1,64,56,49,30.06,29.94,2,0,10,0.00
2013-8-16,89.3,78.6,68.3,69.6,66.0,63.0,94,67,48,30.06,29.95,1,0,11,0.07
2013-8-17,91.1,79.4,66.9,63.6,61.4,58.8,84,56,35,30.10,29.96,1,0,9,0.00
2013-8-18,91.1,79.9,68.0,68.5,63.9,60.8,87,60,40,30.10,29.98,1,0,10,0.00
2013-8-19,96.0,83.4,72.5,69.6,63.6,60.1,77,54,33,30.07,29.92,2,0,10,0.00
2013-8-20,96.6,82.4,72.5,67.0,63.2,59.6,75,55,31,30.03,29.96,1,0,8,0.00
2013-8-21,96.0,89.8,80.2,71.3,68.1,65.7,71,50,40,30.08,29.96,2,0,9,0.00
2013-8-22,98.5,89.4,78.4,73.0,69.2,67.3,79,53,37,30.07,29.90,1,0,9,0.00
2013-8-23,100.8,90.1,80.0,74.8,70.1,66.0,75,54,34,30.01,29.86,2,0,9,0.00
2013-8-24,101.0,90.6,79.4,73.2,69.0,62.5,74,51,29,30.04,29.93,2,0,14,0.00
2013-8-25,97.8,88.7,78.4,72.6,68.7,66.1,75,53,37,30.13,30.02,3,0,13,0.00
2013-8-26,97.0,86.8,77.7,71.8,68.4,63.4,79,56,35,30.15,30.02,5,1,16,0.00
2013-8-27,93.8,83.6,75.2,72.3,70.2,65.7,86,66,40,30.11,30.01,2,0,11,0.00
2013-8-28,98.9,86.0,73.1,73.2,67.9,63.4,85,58,33,30.09,29.97,1,0,10,0.00
2013-8-29,102.2,89.0,75.4,70.7,67.0,63.6,77,51,29,30.06,29.92,1,0,8,0.00
2013-8-30,104.3,91.2,78.1,70.9,65.9,61.0,70,46,27,29.99,29.84,2,0,10,0.00
2013-9-11,96.5,86.0,78.5,77.9,71.2,68.1,89,63,40,30.12,29.98,2,0,13,0.09
2013-9-12,81.2,79.4,78.0,70.1,69.3,68.3,74,71,69,30.03,30.02,0,0,5,0.00
2013-9-17,92.1,87.5,84.1,67.3,66.6,65.4,55,50,43,29.96,29.92,0,0,5,0.00
2013-9-18,97.1,85.5,78.0,72.6,68.6,62.2,75,59,32,30.00,29.86,2,0,10,0.00
2013-9-24,91.8,91.8,91.8,53.1,53.1,52.1,27,27,27,29.84,29.84,1,1,11,0.00
2013-9-25,93.7,77.7,59.5,60.4,54.8,50.0,91,50,24,29.91,29.76,1,0,11,0.00
2013-9-26,94.1,81.6,68.9,62.8,57.6,51.3,66,45,28,29.88,29.78,2,0,13,0.00
2013-9-27,88.1,81.3,71.9,73.0,68.5,60.5,77,66,52,29.93,29.82,3,1,13,0.00
2013-9-28,85.2,76.6,67.9,77.2,71.3,63.2,94,84,71,30.05,29.85,3,0,13,0.38
2013-9-29,80.2,71.0,63.7,63.4,57.5,50.3,85,65,36,30.07,29.92,2,0,8,0.00
2013-9-30,86.2,72.1,57.8,64.5,57.5,51.9,95,65,31,29.94,29.81,1,0,8,0.00
2013-10-1,88.8,76.9,65.7,72.2,67.3,63.2,95,75,44,29.94,29.83,1,0,9,0.00
2013-10-10,83.4,72.9,60.6,64.6,60.4,56.0,90,66,47,30.06,29.88,2,0,12,0.00
2013-10-11,73.5,72.6,72.0,65.9,64.4,62.3,81,76,68,29.88,29.86,2,1,13,0.00
2013-10-23,81.6,71.8,57.9,55.3,51.9,47.6,85,52,32,30.15,30.04,1,0,11,0.00
2013-10-24,78.3,65.6,50.5,54.7,50.5,44.6,91,60,39,30.29,30.08,0,0,9,0.00
2013-10-25,68.4,60.2,52.3,50.5,46.9,43.5,80,62,51,30.42,30.25,3,1,12,0.00
2013-10-26,75.5,63.8,55.7,64.5,56.7,48.7,95,78,66,30.26,30.03,3,0,12,1.11
2013-10-27,67.5,62.3,59.0,60.0,58.7,56.2,97,88,75,30.15,30.02,0,0,9,0.00
2013-10-28,75.9,66.6,55.4,68.7,62.8,53.8,97,88,75,30.12,30.00,2,0,10,0.00
2013-10-29,76.4,72.5,69.6,70.6,68.6,66.8,91,88,82,30.08,29.98,2,1,11,0.00
2013-10-30,73.4,69.8,66.6,69.8,67.4,64.7,95,92,87,30.01,29.80,4,1,14,0.06
2013-10-31,68.2,67.9,67.0,67.0,66.6,65.5,96,96,95,29.81,29.72,0,0,9,0.00
2013-11-13,51.5,43.9,34.1,30.7,26.8,22.4,82,53,36,30.72,30.42,1,0,8,0.00
2013-11-14,33.9,32.8,31.6,29.4,28.8,28.2,88,85,82,30.42,30.38,0,0,0,0.00
2013-11-15,72.2,65.8,57.3,59.4,56.5,53.4,87,73,55,30.01,29.85,1,0,8,0.00
2013-11-16,78.7,70.4,61.6,70.0,64.3,58.6,91,81,65,29.87,29.68,3,1,15,0.00
2013-11-17,85.9,75.3,66.1,69.9,57.9,36.1,92,59,29,30.02,29.69,3,0,12,0.00
2013-11-18,70.3,64.0,55.2,38.9,33.3,29.7,47,32,23,30.19,30.02,1,0,7,0.00
2013-11-19,68.2,61.2,56.2,41.0,36.6,33.3,50,40,28,30.19,30.03,3,1,12,0.00
2013-11-20,65.4,58.1,50.2,56.2,44.8,35.9,80,61,47,30.05,29.90,2,1,14,0.00
2013-11-21,73.7,63.6,41.8,70.4,60.9,39.6,96,91,80,30.25,29.96,6,1,16,0.12
2013-11-22,41.6,36.9,34.8,39.4,34.8,33.1,95,92,87,30.50,30.25,4,2,18,0.11
2013-11-23,42.4,38.3,36.2,38.3,34.6,27.5,100,87,67,30.60,30.48,2,0,11,0.04
2013-11-24,37.1,34.9,33.2,29.0,26.5,22.5,78,71,61,30.64,30.39,1,0,9,0.01
2013-11-25,37.6,35.5,32.6,36.0,33.6,28.3,96,93,75,30.40,30.19,1,0,8,0.63
2013-11-26,51.8,42.2,36.1,37.2,32.9,26.2,95,72,46,30.43,30.19,5,2,20,0.01
2013-11-27,45.2,36.1,29.3,26.6,21.6,16.3,88,58,35,30.52,30.39,2,0,11,0.00
2013-11-28,53.2,38.9,26.7,30.7,27.3,23.6,90,66,34,30.50,30.40,2,0,9,0.00
2013-11-29,58.2,43.8,29.3,42.7,34.7,26.8,94,72,47,30.56,30.38,2,0,10,0.00
2013-11-30,65.9,52.6,38.0,53.0,45.8,35.8,95,79,62,30.38,30.17,3,0,11,0.00
2013-12-1,69.0,59.6,51.9,58.6,54.9,49.8,95,85,68,30.19,29.91,4,0,11,0.00
2013-12-2,69.9,54.6,42.2,52.5,48.3,40.9,97,81,51,29.92,29.68,2,0,9,0.00
2013-12-3,76.0,57.1,44.0,48.0,43.5,37.6,96,66,27,29.69,29.53,3,0,10,0.00
2013-12-4,78.7,61.4,49.1,53.2,46.6,37.4,80,60,40,29.91,29.59,2,0,9,0.00
2013-12-5,48.8,35.2,29.7,37.2,27.0,20.9,93,73,57,30.24,29.91,4,1,13,0.00
2013-12-6,32.4,30.2,27.6,30.6,28.5,25.8,95,93,92,30.25,30.16,1,0,7,0.10
2013-12-11,43.6,37.3,27.9,32.5,29.8,26.4,94,75,61,30.64,30.47,1,0,8,0.31
2013-12-12,33.2,30.4,28.7,27.5,26.2,25.5,92,84,78,30.65,30.63,0,0,4,0.31
2013-12-13,46.9,45.4,43.8,45.8,44.0,42.4,96,95,94,29.92,29.83,2,0,9,0.13
2013-12-14,47.1,45.8,42.3,46.0,44.6,40.8,96,96,95,29.84,29.81,1,0,10,0.13